sensor_id;sensor_type;location;lat;lon;timestamp;pressure;altitude;pressure_sealevel;temperature;humidity
3132;BME280;62090;52.330;9.104;2023-01-31T00:00:16;101496.78;;;6.07;100.00
3132;BME280;62090;52.330;9.104;2023-01-31T00:02:46;101499.09;;;6.03;100.00
3132;BME280;62090;52.330;9.104;2023-01-31T00:05:16;101495.34;;;5.96;100.00
3132;BME280;62090;52.330;9.104;2023-01-31T00:07:46;101451.03;;;5.73;100.00
3132;BME280;62090;52.330;9.104;2023-01-31T00:10:16;101489.84;;;5.88;100.00
3132;BME280;62090;52.330;9.104;2023-01-31T00:12:48;101493.69;;;5.97;100.00
3132;BME280;62090;52.330;9.104;2023-01-31T00:15:18;101499.53;;;5.96;100.00
3132;BME280;62090;52.330;9.104;2023-01-31T00:17:48;101455.41;;;5.76;100.00
3132;BME280;62090;52.330;9.104;2023-01-31T00:20:18;101472.13;;;5.88;100.00
3132;BME280;62090;52.330;9.104;2023-01-31T00:22:47;101466.13;;;5.86;100.00
3132;BME280;62090;52.330;9.104;2023-01-31T00:25:17;101449.03;;;5.68;100.00
3132;BME280;62090;52.330;9.104;2023-01-31T00:27:50;101470.56;;;5.90;100.00
3132;BME280;62090;52.330;9.104;2023-01-31T00:30:20;101475.88;;;5.80;100.00
3132;BME280;62090;52.330;9.104;2023-01-31T00:32:49;101483.22;;;5.76;100.00
3132;BME280;62090;52.330;9.104;2023-01-31T00:35:19;101486.59;;;5.76;100.00
3132;BME280;62090;52.330;9.104;2023-01-31T00:37:49;101481.38;;;5.73;100.00
3132;BME280;62090;52.330;9.104;2023-01-31T00:40:18;101477.88;;;5.71;100.00
3132;BME280;62090;52.330;9.104;2023-01-31T00:42:50;101458.22;;;5.66;100.00
3132;BME280;62090;52.330;9.104;2023-01-31T00:45:20;101494.13;;;5.75;100.00
3132;BME280;62090;52.330;9.104;2023-01-31T00:47:50;101494.91;;;5.74;100.00
3132;BME280;62090;52.330;9.104;2023-01-31T00:50:20;101495.06;;;5.77;100.00
3132;BME280;62090;52.330;9.104;2023-01-31T00:52:49;101497.69;;;5.78;100.00
3132;BME280;62090;52.330;9.104;2023-01-31T00:55:19;101485.66;;;5.74;100.00
3132;BME280;62090;52.330;9.104;2023-01-31T00:57:51;101486.44;;;5.73;100.00
3132;BME280;62090;52.330;9.104;2023-01-31T01:00:22;101461.09;;;5.57;100.00
3132;BME280;62090;52.330;9.104;2023-01-31T01:02:52;101511.44;;;5.83;100.00
3132;BME280;62090;52.330;9.104;2023-01-31T01:05:22;101499.53;;;5.81;100.00
3132;BME280;62090;52.330;9.104;2023-01-31T01:07:52;101500.94;;;5.76;100.00
3132;BME280;62090;52.330;9.104;2023-01-31T01:10:22;101503.50;;;5.77;100.00
3132;BME280;62090;52.330;9.104;2023-01-31T01:12:55;101512.34;;;5.69;100.00
3132;BME280;62090;52.330;9.104;2023-01-31T01:15:24;101506.41;;;5.69;100.00
3132;BME280;62090;52.330;9.104;2023-01-31T01:17:54;101513.81;;;5.80;100.00
3132;BME280;62090;52.330;9.104;2023-01-31T01:20:24;101513.81;;;5.80;100.00
3132;BME280;62090;52.330;9.104;2023-01-31T01:22:53;101515.22;;;5.75;100.00
3132;BME280;62090;52.330;9.104;2023-01-31T01:25:23;101484.88;;;5.46;100.00
3132;BME280;62090;52.330;9.104;2023-01-31T01:27:55;101525.41;;;5.77;100.00
3132;BME280;62090;52.330;9.104;2023-01-31T01:30:25;101519.31;;;5.73;100.00
3132;BME280;62090;52.330;9.104;2023-01-31T01:32:55;101498.72;;;5.67;100.00
3132;BME280;62090;52.330;9.104;2023-01-31T01:35:25;101522.81;;;5.75;100.00
3132;BME280;62090;52.330;9.104;2023-01-31T01:37:55;101526.22;;;5.76;100.00
3132;BME280;62090;52.330;9.104;2023-01-31T01:40:33;101517.31;;;5.68;100.00
3132;BME280;62090;52.330;9.104;2023-01-31T01:43:08;101524.47;;;5.60;100.00
3132;BME280;62090;52.330;9.104;2023-01-31T01:45:38;101487.00;;;5.38;100.00
3132;BME280;62090;52.330;9.104;2023-01-31T01:48:12;101535.97;;;5.70;100.00
3132;BME280;62090;52.330;9.104;2023-01-31T01:50:47;101542.56;;;5.82;100.00
3132;BME280;62090;52.330;9.104;2023-01-31T01:53:19;101514.69;;;5.66;100.00
3132;BME280;62090;52.330;9.104;2023-01-31T01:55:52;101536.66;;;5.82;100.00
3132;BME280;62090;52.330;9.104;2023-01-31T01:58:27;101524.81;;;5.81;100.00
3132;BME280;62090;52.330;9.104;2023-01-31T02:00:59;101529.34;;;5.72;100.00
3132;BME280;62090;52.330;9.104;2023-01-31T02:03:29;101496.75;;;5.47;100.00
3132;BME280;62090;52.330;9.104;2023-01-31T02:06:02;101523.94;;;5.51;100.00
3132;BME280;62090;52.330;9.104;2023-01-31T02:08:35;101519.59;;;5.48;100.00
3132;BME280;62090;52.330;9.104;2023-01-31T02:11:10;101546.41;;;5.61;100.00
3132;BME280;62090;52.330;9.104;2023-01-31T02:13:46;101550.53;;;5.59;100.00
3132;BME280;62090;52.330;9.104;2023-01-31T02:16:17;101538.94;;;5.48;100.00
3132;BME280;62090;52.330;9.104;2023-01-31T02:18:47;101544.72;;;5.60;100.00
3132;BME280;62090;52.330;9.104;2023-01-31T02:21:58;101553.06;;;5.59;100.00
3132;BME280;62090;52.330;9.104;2023-01-31T02:28:11;101551.06;;;5.39;100.00
3132;BME280;62090;52.330;9.104;2023-01-31T02:31:01;101551.84;;;5.38;100.00
3132;BME280;62090;52.330;9.104;2023-01-31T02:33:48;101540.06;;;5.38;100.00
3132;BME280;62090;52.330;9.104;2023-01-31T02:36:28;101538.06;;;5.33;100.00
3132;BME280;62090;52.330;9.104;2023-01-31T02:39:10;101556.38;;;5.43;100.00
3132;BME280;62090;52.330;9.104;2023-01-31T02:41:50;101556.88;;;5.38;100.00
3132;BME280;62090;52.330;9.104;2023-01-31T02:44:27;101537.81;;;5.28;100.00
3132;BME280;62090;52.330;9.104;2023-01-31T02:47:18;101558.19;;;5.46;100.00
3132;BME280;62090;52.330;9.104;2023-01-31T02:49:57;101574.84;;;5.42;100.00
3132;BME280;62090;52.330;9.104;2023-01-31T02:52:34;101564.84;;;5.44;100.00
3132;BME280;62090;52.330;9.104;2023-01-31T02:55:14;101547.19;;;5.31;100.00
3132;BME280;62090;52.330;9.104;2023-01-31T02:57:59;101540.75;;;5.36;100.00
3132;BME280;62090;52.330;9.104;2023-01-31T03:00:32;101553.75;;;5.42;100.00
3132;BME280;62090;52.330;9.104;2023-01-31T03:03:04;101543.00;;;5.31;100.00
3132;BME280;62090;52.330;9.104;2023-01-31T03:05:37;101559.78;;;5.44;100.00
3132;BME280;62090;52.330;9.104;2023-01-31T03:08:10;101537.69;;;5.27;100.00
3132;BME280;62090;52.330;9.104;2023-01-31T03:10:57;101535.78;;;5.23;100.00
3132;BME280;62090;52.330;9.104;2023-01-31T03:13:34;101561.94;;;5.38;100.00
3132;BME280;62090;52.330;9.104;2023-01-31T03:16:16;101533.59;;;5.29;100.00
3132;BME280;62090;52.330;9.104;2023-01-31T03:19:05;101542.50;;;5.37;100.00
3132;BME280;62090;52.330;9.104;2023-01-31T03:21:46;101527.97;;;5.33;100.00
3132;BME280;62090;52.330;9.104;2023-01-31T03:24:19;101531.06;;;5.29;100.00
3132;BME280;62090;52.330;9.104;2023-01-31T03:26:52;101522.81;;;5.31;100.00
3132;BME280;62090;52.330;9.104;2023-01-31T03:29:25;101545.38;;;5.43;100.00
3132;BME280;62090;52.330;9.104;2023-01-31T03:31:59;101523.06;;;5.36;100.00
3132;BME280;62090;52.330;9.104;2023-01-31T03:34:32;101527.84;;;5.46;100.00
3132;BME280;62090;52.330;9.104;2023-01-31T03:37:08;101519.50;;;5.47;100.00
3132;BME280;62090;52.330;9.104;2023-01-31T03:39:51;101506.19;;;5.49;99.78
3132;BME280;62090;52.330;9.104;2023-01-31T03:42:27;101538.75;;;5.45;99.94
3132;BME280;62090;52.330;9.104;2023-01-31T03:45:04;101527.34;;;5.37;99.99
3132;BME280;62090;52.330;9.104;2023-01-31T03:47:37;101503.34;;;5.16;100.00
3132;BME280;62090;52.330;9.104;2023-01-31T03:50:13;101470.34;;;5.13;100.00
3132;BME280;62090;52.330;9.104;2023-01-31T03:52:50;101511.91;;;5.32;99.39
3132;BME280;62090;52.330;9.104;2023-01-31T03:55:27;101504.22;;;5.16;100.00
3132;BME280;62090;52.330;9.104;2023-01-31T03:58:02;101514.44;;;5.18;100.00
3132;BME280;62090;52.330;9.104;2023-01-31T04:00:35;101499.69;;;5.10;100.00
3132;BME280;62090;52.330;9.104;2023-01-31T04:03:10;101498.56;;;5.05;100.00
3132;BME280;62090;52.330;9.104;2023-01-31T04:05:42;101489.22;;;5.04;100.00
3132;BME280;62090;52.330;9.104;2023-01-31T04:08:17;101492.53;;;5.03;100.00
3132;BME280;62090;52.330;9.104;2023-01-31T04:10:57;101486.28;;;4.97;100.00
3132;BME280;62090;52.330;9.104;2023-01-31T04:13:27;101497.66;;;4.90;100.00
3132;BME280;62090;52.330;9.104;2023-01-31T04:15:57;101495.09;;;4.76;100.00
3132;BME280;62090;52.330;9.104;2023-01-31T04:18:26;101491.19;;;4.81;100.00
3132;BME280;62090;52.330;9.104;2023-01-31T04:20:56;101501.97;;;4.78;100.00
3132;BME280;62090;52.330;9.104;2023-01-31T04:23:28;101507.19;;;4.81;100.00
3132;BME280;62090;52.330;9.104;2023-01-31T04:25:59;101458.94;;;4.62;100.00
3132;BME280;62090;52.330;9.104;2023-01-31T04:28:28;101507.13;;;4.80;100.00
3132;BME280;62090;52.330;9.104;2023-01-31T04:30:58;101514.78;;;4.81;100.00
3132;BME280;62090;52.330;9.104;2023-01-31T04:33:28;101503.25;;;4.72;100.00
3132;BME280;62090;52.330;9.104;2023-01-31T04:35:58;101506.22;;;4.64;100.00
3132;BME280;62090;52.330;9.104;2023-01-31T04:38:31;101497.66;;;4.62;100.00
3132;BME280;62090;52.330;9.104;2023-01-31T04:41:00;101468.50;;;4.40;100.00
3132;BME280;62090;52.330;9.104;2023-01-31T04:43:30;101459.28;;;4.40;100.00
3132;BME280;62090;52.330;9.104;2023-01-31T04:46:00;101503.97;;;4.69;100.00
3132;BME280;62090;52.330;9.104;2023-01-31T04:48:30;101509.78;;;4.68;100.00
3132;BME280;62090;52.330;9.104;2023-01-31T04:50:59;101513.06;;;4.80;100.00
3132;BME280;62090;52.330;9.104;2023-01-31T04:53:32;101494.97;;;4.59;100.00
3132;BME280;62090;52.330;9.104;2023-01-31T04:56:02;101510.31;;;4.77;100.00
3132;BME280;62090;52.330;9.104;2023-01-31T04:58:32;101514.63;;;4.93;100.00
3132;BME280;62090;52.330;9.104;2023-01-31T05:01:02;101509.53;;;4.78;100.00
3132;BME280;62090;52.330;9.104;2023-01-31T05:03:32;101490.72;;;4.73;100.00
3132;BME280;62090;52.330;9.104;2023-01-31T05:06:02;101495.91;;;4.89;100.00
3132;BME280;62090;52.330;9.104;2023-01-31T05:08:35;101500.56;;;4.96;100.00
3132;BME280;62090;52.330;9.104;2023-01-31T05:11:04;101500.88;;;5.02;100.00
3132;BME280;62090;52.330;9.104;2023-01-31T05:13:35;101501.06;;;4.91;100.00
3132;BME280;62090;52.330;9.104;2023-01-31T05:16:07;101499.47;;;4.93;100.00
3132;BME280;62090;52.330;9.104;2023-01-31T05:18:37;101498.59;;;4.92;100.00
3132;BME280;62090;52.330;9.104;2023-01-31T05:21:07;101498.06;;;4.83;100.00
3132;BME280;62090;52.330;9.104;2023-01-31T05:23:39;101494.78;;;4.84;100.00
3132;BME280;62090;52.330;9.104;2023-01-31T05:26:09;101471.69;;;4.78;100.00
3132;BME280;62090;52.330;9.104;2023-01-31T05:28:39;101477.09;;;4.84;100.00
3132;BME280;62090;52.330;9.104;2023-01-31T05:31:09;101480.59;;;4.86;100.00
3132;BME280;62090;52.330;9.104;2023-01-31T05:33:39;101484.06;;;4.88;100.00
3132;BME280;62090;52.330;9.104;2023-01-31T05:36:08;101490.63;;;4.99;100.00
3132;BME280;62090;52.330;9.104;2023-01-31T05:38:41;101463.25;;;4.92;100.00
3132;BME280;62090;52.330;9.104;2023-01-31T05:41:11;101435.91;;;4.85;100.00
3132;BME280;62090;52.330;9.104;2023-01-31T05:43:40;101472.25;;;5.17;100.00
3132;BME280;62090;52.330;9.104;2023-01-31T05:46:10;101460.91;;;4.95;100.00
3132;BME280;62090;52.330;9.104;2023-01-31T05:48:39;101469.28;;;5.09;100.00
3132;BME280;62090;52.330;9.104;2023-01-31T05:51:09;101458.16;;;5.05;100.00
3132;BME280;62090;52.330;9.104;2023-01-31T05:53:41;101424.84;;;4.68;100.00
3132;BME280;62090;52.330;9.104;2023-01-31T05:56:11;101467.22;;;5.17;100.00
3132;BME280;62090;52.330;9.104;2023-01-31T05:58:42;101454.06;;;5.07;100.00
3132;BME280;62090;52.330;9.104;2023-01-31T06:01:16;101463.28;;;5.07;100.00
3132;BME280;62090;52.330;9.104;2023-01-31T06:03:48;101453.97;;;4.91;100.00
3132;BME280;62090;52.330;9.104;2023-01-31T06:06:19;101462.06;;;5.00;100.00
3132;BME280;62090;52.330;9.104;2023-01-31T06:08:51;101462.22;;;5.03;100.00
3132;BME280;62090;52.330;9.104;2023-01-31T06:11:21;101451.50;;;4.93;100.00
3132;BME280;62090;52.330;9.104;2023-01-31T06:13:51;101440.19;;;4.86;100.00
3132;BME280;62090;52.330;9.104;2023-01-31T06:16:24;101457.78;;;4.99;100.00
3132;BME280;62090;52.330;9.104;2023-01-31T06:18:54;101456.13;;;5.00;100.00
3132;BME280;62090;52.330;9.104;2023-01-31T06:21:24;101442.47;;;4.96;100.00
3132;BME280;62090;52.330;9.104;2023-01-31T06:23:56;101455.78;;;5.08;100.00
3132;BME280;62090;52.330;9.104;2023-01-31T06:26:26;101413.34;;;4.88;100.00
3132;BME280;62090;52.330;9.104;2023-01-31T06:28:56;101450.91;;;5.12;100.00
3132;BME280;62090;52.330;9.104;2023-01-31T06:31:26;101430.88;;;5.00;100.00
3132;BME280;62090;52.330;9.104;2023-01-31T06:33:56;101446.03;;;5.15;100.00
3132;BME280;62090;52.330;9.104;2023-01-31T06:36:26;101442.03;;;5.18;100.00
3132;BME280;62090;52.330;9.104;2023-01-31T06:38:58;101436.13;;;5.18;100.00
3132;BME280;62090;52.330;9.104;2023-01-31T06:41:29;101441.44;;;5.07;100.00
3132;BME280;62090;52.330;9.104;2023-01-31T06:43:59;101451.28;;;5.18;100.00
3132;BME280;62090;52.330;9.104;2023-01-31T06:46:29;101441.34;;;5.21;100.00
3132;BME280;62090;52.330;9.104;2023-01-31T06:48:59;101445.34;;;5.32;100.00
3132;BME280;62090;52.330;9.104;2023-01-31T06:51:28;101431.66;;;5.14;100.00
3132;BME280;62090;52.330;9.104;2023-01-31T06:54:01;101438.38;;;5.28;100.00
3132;BME280;62090;52.330;9.104;2023-01-31T06:56:31;101419.31;;;5.18;100.00
3132;BME280;62090;52.330;9.104;2023-01-31T06:59:00;101422.88;;;5.22;100.00
3132;BME280;62090;52.330;9.104;2023-01-31T07:01:30;101411.19;;;5.24;100.00
3132;BME280;62090;52.330;9.104;2023-01-31T07:04:00;101420.84;;;5.31;100.00
3132;BME280;62090;52.330;9.104;2023-01-31T07:06:30;101412.06;;;5.24;100.00
3132;BME280;62090;52.330;9.104;2023-01-31T07:09:02;101399.63;;;5.13;100.00
3132;BME280;62090;52.330;9.104;2023-01-31T07:11:33;101403.78;;;5.27;100.00
3132;BME280;62090;52.330;9.104;2023-01-31T07:14:02;101398.47;;;5.22;100.00
3132;BME280;62090;52.330;9.104;2023-01-31T07:16:33;101407.00;;;5.39;100.00
3132;BME280;62090;52.330;9.104;2023-01-31T07:19:04;101405.06;;;5.35;100.00
3132;BME280;62090;52.330;9.104;2023-01-31T07:21:33;101393.25;;;5.34;100.00
3132;BME280;62090;52.330;9.104;2023-01-31T07:24:07;101384.41;;;5.42;100.00
3132;BME280;62090;52.330;9.104;2023-01-31T07:26:37;101386.59;;;5.36;100.00
3132;BME280;62090;52.330;9.104;2023-01-31T07:29:07;101385.81;;;5.37;100.00
3132;BME280;62090;52.330;9.104;2023-01-31T07:31:37;101340.72;;;5.14;100.00
3132;BME280;62090;52.330;9.104;2023-01-31T07:34:07;101370.75;;;5.38;100.00
3132;BME280;62090;52.330;9.104;2023-01-31T07:36:37;101363.41;;;5.43;100.00
3132;BME280;62090;52.330;9.104;2023-01-31T07:39:09;101366.56;;;5.39;100.00
3132;BME280;62090;52.330;9.104;2023-01-31T07:41:39;101359.00;;;5.39;100.00
3132;BME280;62090;52.330;9.104;2023-01-31T07:44:09;101359.88;;;5.56;100.00
3132;BME280;62090;52.330;9.104;2023-01-31T07:46:39;101363.16;;;5.69;100.00
3132;BME280;62090;52.330;9.104;2023-01-31T07:49:10;101343.50;;;5.64;100.00
3132;BME280;62090;52.330;9.104;2023-01-31T07:51:39;101341.34;;;5.71;100.00
3132;BME280;62090;52.330;9.104;2023-01-31T07:54:12;101344.84;;;5.73;100.00
3132;BME280;62090;52.330;9.104;2023-01-31T07:56:41;101349.00;;;5.87;100.00
3132;BME280;62090;52.330;9.104;2023-01-31T07:59:11;101335.06;;;5.79;100.00
3132;BME280;62090;52.330;9.104;2023-01-31T08:01:42;101328.25;;;5.78;100.00
3132;BME280;62090;52.330;9.104;2023-01-31T08:04:25;101332.44;;;5.78;100.00
3132;BME280;62090;52.330;9.104;2023-01-31T08:06:55;101328.94;;;5.90;100.00
3132;BME280;62090;52.330;9.104;2023-01-31T08:09:31;101314.47;;;5.88;100.00
3132;BME280;62090;52.330;9.104;2023-01-31T08:12:01;101320.22;;;5.85;100.00
3132;BME280;62090;52.330;9.104;2023-01-31T08:14:30;101293.56;;;5.76;100.00
3132;BME280;62090;52.330;9.104;2023-01-31T08:17:00;101300.78;;;6.01;100.00
3132;BME280;62090;52.330;9.104;2023-01-31T08:19:30;101307.97;;;5.93;100.00
3132;BME280;62090;52.330;9.104;2023-01-31T08:22:00;101295.28;;;5.91;100.00
3132;BME280;62090;52.330;9.104;2023-01-31T08:24:32;101283.56;;;5.93;100.00
3132;BME280;62090;52.330;9.104;2023-01-31T08:27:02;101289.13;;;6.03;100.00
3132;BME280;62090;52.330;9.104;2023-01-31T08:29:32;101281.66;;;5.89;100.00
3132;BME280;62090;52.330;9.104;2023-01-31T08:32:02;101295.78;;;5.86;100.00
3132;BME280;62090;52.330;9.104;2023-01-31T08:34:31;101256.03;;;5.83;100.00
3132;BME280;62090;52.330;9.104;2023-01-31T08:37:01;101258.63;;;5.85;100.00
3132;BME280;62090;52.330;9.104;2023-01-31T08:39:33;101296.06;;;6.07;100.00
3132;BME280;62090;52.330;9.104;2023-01-31T08:42:03;101285.44;;;5.98;100.00
3132;BME280;62090;52.330;9.104;2023-01-31T08:44:33;101257.25;;;5.90;100.00
3132;BME280;62090;52.330;9.104;2023-01-31T08:47:04;101287.69;;;6.08;100.00
3132;BME280;62090;52.330;9.104;2023-01-31T08:49:33;101284.34;;;6.09;100.00
3132;BME280;62090;52.330;9.104;2023-01-31T08:52:04;101279.00;;;6.03;100.00
3132;BME280;62090;52.330;9.104;2023-01-31T08:54:37;101275.81;;;6.07;100.00
3132;BME280;62090;52.330;9.104;2023-01-31T08:57:07;101256.28;;;6.04;100.00
3132;BME280;62090;52.330;9.104;2023-01-31T08:59:36;101264.75;;;6.05;100.00
3132;BME280;62090;52.330;9.104;2023-01-31T09:02:07;101236.56;;;5.82;100.00
3132;BME280;62090;52.330;9.104;2023-01-31T09:04:38;101261.56;;;5.92;100.00
3132;BME280;62090;52.330;9.104;2023-01-31T09:07:08;101235.34;;;5.90;100.00
3132;BME280;62090;52.330;9.104;2023-01-31T09:09:40;101231.09;;;5.89;100.00
3132;BME280;62090;52.330;9.104;2023-01-31T09:12:09;101243.72;;;6.06;100.00
3132;BME280;62090;52.330;9.104;2023-01-31T09:14:39;101236.91;;;6.05;100.00
3132;BME280;62090;52.330;9.104;2023-01-31T09:17:09;101231.41;;;5.96;100.00
3132;BME280;62090;52.330;9.104;2023-01-31T09:19:42;101230.03;;;5.86;100.00
3132;BME280;62090;52.330;9.104;2023-01-31T09:22:11;101232.63;;;5.71;100.00
3132;BME280;62090;52.330;9.104;2023-01-31T09:24:43;101217.47;;;5.71;100.00
3132;BME280;62090;52.330;9.104;2023-01-31T09:27:14;101226.41;;;5.81;100.00
3132;BME280;62090;52.330;9.104;2023-01-31T09:29:43;101232.75;;;5.89;100.00
3132;BME280;62090;52.330;9.104;2023-01-31T09:32:13;101225.69;;;5.83;100.00
3132;BME280;62090;52.330;9.104;2023-01-31T09:34:43;101233.44;;;5.86;100.00
3132;BME280;62090;52.330;9.104;2023-01-31T09:37:14;101207.66;;;5.61;100.00
3132;BME280;62090;52.330;9.104;2023-01-31T09:39:47;101214.16;;;5.56;100.00
3132;BME280;62090;52.330;9.104;2023-01-31T09:42:21;101184.00;;;5.43;100.00
3132;BME280;62090;52.330;9.104;2023-01-31T09:44:58;101179.25;;;5.49;100.00
3132;BME280;62090;52.330;9.104;2023-01-31T09:47:32;101179.63;;;5.57;100.00
3132;BME280;62090;52.330;9.104;2023-01-31T09:50:05;101197.56;;;5.61;100.00
3132;BME280;62090;52.330;9.104;2023-01-31T09:52:37;101128.84;;;5.20;100.00
3132;BME280;62090;52.330;9.104;2023-01-31T09:55:14;101187.84;;;5.52;100.00
3132;BME280;62090;52.330;9.104;2023-01-31T09:57:50;101173.56;;;5.53;100.00
3132;BME280;62090;52.330;9.104;2023-01-31T10:00:26;101194.75;;;5.55;100.00
3132;BME280;62090;52.330;9.104;2023-01-31T10:03:24;101179.56;;;5.55;100.00
3132;BME280;62090;52.330;9.104;2023-01-31T10:06:03;101193.00;;;5.54;100.00
3132;BME280;62090;52.330;9.104;2023-01-31T10:08:40;101181.50;;;5.61;100.00
3132;BME280;62090;52.330;9.104;2023-01-31T10:11:17;101175.75;;;5.63;100.00
3132;BME280;62090;52.330;9.104;2023-01-31T10:13:53;101144.25;;;5.57;100.00
3132;BME280;62090;52.330;9.104;2023-01-31T10:16:30;101170.16;;;5.69;100.00
3132;BME280;62090;52.330;9.104;2023-01-31T10:19:04;101162.66;;;5.70;100.00
3132;BME280;62090;52.330;9.104;2023-01-31T10:21:39;101155.28;;;5.75;100.00
3132;BME280;62090;52.330;9.104;2023-01-31T10:24:13;101165.75;;;5.65;100.00
3132;BME280;62090;52.330;9.104;2023-01-31T10:26:48;101138.16;;;5.53;100.00
3132;BME280;62090;52.330;9.104;2023-01-31T10:29:23;101156.31;;;5.78;100.00
3132;BME280;62090;52.330;9.104;2023-01-31T10:31:59;101156.31;;;5.78;100.00
3132;BME280;62090;52.330;9.104;2023-01-31T10:34:34;101162.00;;;5.90;100.00
3132;BME280;62090;52.330;9.104;2023-01-31T10:37:11;101154.72;;;5.80;100.00
3132;BME280;62090;52.330;9.104;2023-01-31T10:39:45;101113.91;;;5.57;100.00
3132;BME280;62090;52.330;9.104;2023-01-31T10:42:25;101128.19;;;5.72;100.00
3132;BME280;62090;52.330;9.104;2023-01-31T10:45:01;101139.16;;;5.89;100.00
3132;BME280;62090;52.330;9.104;2023-01-31T10:47:33;101127.84;;;5.82;100.00
3132;BME280;62090;52.330;9.104;2023-01-31T10:50:12;101125.75;;;5.90;100.00
3132;BME280;62090;52.330;9.104;2023-01-31T10:52:51;101126.53;;;5.89;100.00
3132;BME280;62090;52.330;9.104;2023-01-31T10:55:39;101102.63;;;5.84;100.00
3132;BME280;62090;52.330;9.104;2023-01-31T10:58:17;101127.00;;;6.16;100.00
3132;BME280;62090;52.330;9.104;2023-01-31T11:00:48;101110.50;;;6.06;100.00
3132;BME280;62090;52.330;9.104;2023-01-31T11:03:19;101105.66;;;6.11;100.00
3132;BME280;62090;52.330;9.104;2023-01-31T11:05:50;101097.44;;;5.97;100.00
3132;BME280;62090;52.330;9.104;2023-01-31T11:08:27;101105.53;;;6.08;100.00
3132;BME280;62090;52.330;9.104;2023-01-31T11:11:04;101068.09;;;6.01;100.00
3132;BME280;62090;52.330;9.104;2023-01-31T11:13:37;101092.38;;;6.15;100.00
3132;BME280;62090;52.330;9.104;2023-01-31T11:16:10;101043.78;;;6.04;100.00
3132;BME280;62090;52.330;9.104;2023-01-31T11:18:43;101062.97;;;6.17;100.00
3132;BME280;62090;52.330;9.104;2023-01-31T11:21:19;101044.28;;;6.15;100.00
3132;BME280;62090;52.330;9.104;2023-01-31T11:23:51;101061.72;;;6.09;100.00
3132;BME280;62090;52.330;9.104;2023-01-31T11:26:26;101021.97;;;5.88;100.00
3132;BME280;62090;52.330;9.104;2023-01-31T11:28:59;101048.13;;;6.07;100.00
3132;BME280;62090;52.330;9.104;2023-01-31T11:31:33;101067.84;;;6.14;100.00
3132;BME280;62090;52.330;9.104;2023-01-31T11:34:18;101074.38;;;6.26;100.00
3132;BME280;62090;52.330;9.104;2023-01-31T11:36:49;101073.38;;;6.23;100.00
3132;BME280;62090;52.330;9.104;2023-01-31T11:39:26;101077.34;;;6.18;100.00
3132;BME280;62090;52.330;9.104;2023-01-31T11:42:05;101068.00;;;6.17;100.00
3132;BME280;62090;52.330;9.104;2023-01-31T11:44:55;101024.34;;;6.03;100.00
3132;BME280;62090;52.330;9.104;2023-01-31T11:47:38;101071.38;;;6.35;100.00
3132;BME280;62090;52.330;9.104;2023-01-31T11:50:18;101063.16;;;6.39;100.00
3132;BME280;62090;52.330;9.104;2023-01-31T11:52:56;101057.06;;;6.35;100.00
3132;BME280;62090;52.330;9.104;2023-01-31T11:55:34;101031.47;;;6.29;100.00
3132;BME280;62090;52.330;9.104;2023-01-31T11:58:15;101043.16;;;6.45;100.00
3132;BME280;62090;52.330;9.104;2023-01-31T12:00:54;101022.38;;;6.33;100.00
3132;BME280;62090;52.330;9.104;2023-01-31T12:03:25;101019.97;;;6.36;100.00
3132;BME280;62090;52.330;9.104;2023-01-31T12:06:00;101041.03;;;6.35;100.00
3132;BME280;62090;52.330;9.104;2023-01-31T12:08:33;101023.69;;;6.25;100.00
3132;BME280;62090;52.330;9.104;2023-01-31T12:11:05;101028.16;;;6.30;100.00
3132;BME280;62090;52.330;9.104;2023-01-31T12:13:45;101004.22;;;6.24;100.00
3132;BME280;62090;52.330;9.104;2023-01-31T12:16:20;101013.63;;;6.44;100.00
3132;BME280;62090;52.330;9.104;2023-01-31T12:19:04;101008.84;;;6.32;100.00
3132;BME280;62090;52.330;9.104;2023-01-31T12:21:51;101002.25;;;6.36;100.00
3132;BME280;62090;52.330;9.104;2023-01-31T12:24:38;100987.97;;;6.19;100.00
3132;BME280;62090;52.330;9.104;2023-01-31T12:27:21;100955.81;;;6.16;100.00
3132;BME280;62090;52.330;9.104;2023-01-31T12:30:14;101002.53;;;6.42;100.00
3132;BME280;62090;52.330;9.104;2023-01-31T12:33:22;100995.94;;;6.26;100.00
3132;BME280;62090;52.330;9.104;2023-01-31T12:36:08;100991.72;;;6.45;100.00
3132;BME280;62090;52.330;9.104;2023-01-31T12:38:51;100940.47;;;5.94;100.00
3132;BME280;62090;52.330;9.104;2023-01-31T12:41:30;100989.13;;;6.25;100.00
3132;BME280;62090;52.330;9.104;2023-01-31T12:44:35;101005.59;;;6.35;100.00
3132;BME280;62090;52.330;9.104;2023-01-31T12:47:27;101013.25;;;6.36;100.00
3132;BME280;62090;52.330;9.104;2023-01-31T12:50:22;101021.50;;;6.32;100.00
3132;BME280;62090;52.330;9.104;2023-01-31T12:53:11;101018.03;;;6.30;100.00
3132;BME280;62090;52.330;9.104;2023-01-31T12:55:54;101021.13;;;6.43;100.00
3132;BME280;62090;52.330;9.104;2023-01-31T12:58:38;101015.72;;;6.35;100.00
3132;BME280;62090;52.330;9.104;2023-01-31T13:01:15;101001.44;;;6.18;100.00
3132;BME280;62090;52.330;9.104;2023-01-31T13:04:02;101012.94;;;6.29;100.00
3132;BME280;62090;52.330;9.104;2023-01-31T13:06:46;101009.53;;;6.28;100.00
3132;BME280;62090;52.330;9.104;2023-01-31T13:09:20;100982.69;;;6.14;100.00
3132;BME280;62090;52.330;9.104;2023-01-31T13:11:55;100994.78;;;6.20;100.00
3132;BME280;62090;52.330;9.104;2023-01-31T13:14:30;101012.66;;;6.42;100.00
3132;BME280;62090;52.330;9.104;2023-01-31T13:17:03;101011.81;;;6.42;100.00
3132;BME280;62090;52.330;9.104;2023-01-31T13:19:37;101017.66;;;6.41;100.00
3132;BME280;62090;52.330;9.104;2023-01-31T13:22:17;101016.53;;;6.34;100.00
3132;BME280;62090;52.330;9.104;2023-01-31T13:24:53;100992.44;;;6.24;100.00
3132;BME280;62090;52.330;9.104;2023-01-31T13:27:31;100984.47;;;6.34;100.00
3132;BME280;62090;52.330;9.104;2023-01-31T13:30:10;101015.88;;;6.38;100.00
3132;BME280;62090;52.330;9.104;2023-01-31T13:32:46;101007.81;;;6.47;100.00
3132;BME280;62090;52.330;9.104;2023-01-31T13:35:21;101005.16;;;6.44;100.00
3132;BME280;62090;52.330;9.104;2023-01-31T13:37:58;101010.41;;;6.48;100.00